Time;durP1;ratioP1;P1;durP2;ratioP2;P2;SDS_P1;SDS_P2;PMS_P1;PMS_P2;Temp;Humidity;BMP_temperature;BMP_pressure;BME280_temperature;BME280_humidity;BME280_pressure;Samples;Min_cycle;Max_cycle;Signal;HPM_P1;HPM_P2
2023/11/19 00:01:33;;;;;;;41.78;5.88;;;14.40;99.90;;;;;;5056180;28;38586;-78
2023/11/19 00:03:59;;;;;;;38.53;5.75;;;14.40;99.90;;;;;;5056765;27;38535;-77
2023/11/19 00:06:27;;;;;;;37.60;7.15;;;14.40;99.90;;;;;;5055439;27;37548;-78
2023/11/19 00:08:54;;;;;;;38.33;6.30;;;14.40;99.90;;;;;;5068553;27;39631;-78
2023/11/19 00:11:20;;;;;;;52.47;7.55;;;14.40;99.90;;;;;;5058400;27;39402;-78
2023/11/19 00:13:46;;;;;;;46.90;7.90;;;14.40;99.90;;;;;;5056990;27;37646;-77
2023/11/19 00:16:12;;;;;;;42.20;6.95;;;14.40;99.90;;;;;;5068440;27;37945;-80
2023/11/19 00:18:38;;;;;;;46.63;7.50;;;14.30;99.90;;;;;;5053749;28;40248;-79
2023/11/19 00:21:07;;;;;;;46.50;7.32;;;14.40;99.90;;;;;;5056134;27;38230;-79
2023/11/19 00:23:34;;;;;;;48.65;7.57;;;14.40;99.90;;;;;;5056669;28;38508;-80
2023/11/19 00:26:00;;;;;;;49.47;7.68;;;14.30;99.90;;;;;;5052532;28;36018;-80
2023/11/19 00:28:26;;;;;;;39.05;6.13;;;14.40;99.90;;;;;;5052106;28;38989;-79
2023/11/19 00:30:53;;;;;;;41.83;8.60;;;14.30;99.90;;;;;;5056915;28;37567;-79
2023/11/19 00:33:19;;;;;;;52.13;7.85;;;14.30;99.90;;;;;;5055489;27;36512;-78
2023/11/19 00:35:45;;;;;;;47.17;7.00;;;14.30;99.90;;;;;;5054594;28;36367;-79
2023/11/19 00:38:11;;;;;;;55.10;7.90;;;14.30;99.90;;;;;;5052380;27;39167;-79
2023/11/19 00:40:37;;;;;;;56.00;7.55;;;14.20;99.90;;;;;;5056325;28;38545;-79
2023/11/19 00:43:04;;;;;;;62.90;9.48;;;14.20;99.90;;;;;;5052849;28;36636;-79
2023/11/19 00:45:30;;;;;;;54.33;8.10;;;14.20;99.90;;;;;;5051544;28;36969;-80
2023/11/19 00:47:56;;;;;;;51.05;8.60;;;14.20;99.90;;;;;;5053197;27;38698;-80
2023/11/19 00:50:22;;;;;;;63.85;9.38;;;14.20;99.90;;;;;;5054079;27;38121;-80
2023/11/19 00:52:48;;;;;;;51.33;8.00;;;14.10;99.90;;;;;;5054290;28;36739;-79
2023/11/19 00:55:15;;;;;;;57.35;8.48;;;14.10;99.90;;;;;;5054281;27;36862;-79
2023/11/19 00:57:41;;;;;;;54.22;8.27;;;14.10;99.90;;;;;;5053461;28;38955;-79
2023/11/19 01:00:24;;;;;;;63.88;8.85;;;14.00;99.90;;;;;;5059012;27;37582;-80
2023/11/19 01:02:50;;;;;;;;;;;14.00;99.90;;;;;;5057113;27;48335;-80
2023/11/19 01:05:16;;;;;;;61.70;10.60;;;14.00;99.90;;;;;;5052744;28;37499;-80
2023/11/19 01:07:43;;;;;;;73.28;10.30;;;14.00;99.90;;;;;;5054313;28;38995;-79
2023/11/19 01:10:09;;;;;;;69.75;10.23;;;13.90;99.90;;;;;;5054913;28;39224;-80
2023/11/19 01:12:36;;;;;;;79.70;11.02;;;13.90;99.90;;;;;;5056531;28;37586;-81
2023/11/19 01:15:02;;;;;;;76.35;10.88;;;13.90;99.90;;;;;;5053751;28;38248;-80
2023/11/19 01:17:31;;;;;;;60.33;9.43;;;13.90;99.90;;;;;;5057203;28;39597;-81
2023/11/19 01:19:57;;;;;;;70.45;10.52;;;13.90;99.90;;;;;;5072333;27;37701;-81
2023/11/19 01:22:24;;;;;;;75.15;10.98;;;13.80;99.90;;;;;;5055174;27;38762;-81
2023/11/19 01:24:52;;;;;;;79.22;11.18;;;13.80;99.90;;;;;;5054456;28;36620;-80
2023/11/19 01:27:18;;;;;;;75.65;11.65;;;13.70;99.90;;;;;;5055982;27;40440;-81
2023/11/19 01:29:44;;;;;;;84.43;11.73;;;13.70;99.90;;;;;;5057870;27;37936;-81
2023/11/19 01:32:12;;;;;;;82.53;11.32;;;13.60;99.90;;;;;;5052013;27;38026;-81
2023/11/19 01:34:38;;;;;;;69.32;10.88;;;13.60;99.90;;;;;;5055148;28;36195;-80
2023/11/19 01:37:05;;;;;;;83.80;11.45;;;13.50;99.90;;;;;;5054656;27;37644;-80
2023/11/19 01:39:31;;;;;;;73.60;12.05;;;13.50;99.90;;;;;;5058387;28;37801;-80
2023/11/19 01:41:57;;;;;;;80.68;11.35;;;13.50;99.90;;;;;;5063291;28;37735;-80
2023/11/19 01:44:23;;;;;;;74.97;11.98;;;13.50;99.90;;;;;;5052953;27;37118;-80
2023/11/19 01:46:49;;;;;;;75.47;10.73;;;13.40;99.90;;;;;;5070683;27;38653;-81
2023/11/19 01:49:17;;;;;;;75.82;12.43;;;13.40;99.90;;;;;;5054604;27;37333;-80
2023/11/19 01:51:44;;;;;;;68.10;10.32;;;13.40;99.90;;;;;;5056598;28;38030;-80
2023/11/19 01:54:11;;;;;;;70.05;11.20;;;13.40;99.90;;;;;;5056902;27;36506;-81
2023/11/19 01:56:43;;;;;;;68.10;10.00;;;13.40;99.90;;;;;;5056788;28;40621;-81
2023/11/19 01:59:11;;;;;;;70.20;10.55;;;13.40;99.90;;;;;;5070282;27;38210;-80
2023/11/19 02:04:14;;;;;;;68.47;10.88;;;13.40;99.90;;;;;;4282635;22;20084;-78
2023/11/19 02:06:41;;;;;;;62.92;10.23;;;13.30;99.90;;;;;;5078383;28;41776;-80
2023/11/19 02:09:08;;;;;;;79.10;9.50;;;13.30;99.90;;;;;;5083793;28;38447;-80
2023/11/19 02:11:34;;;;;;;78.15;11.85;;;13.40;99.90;;;;;;5081685;28;35372;-80
2023/11/19 02:14:03;;;;;;;82.10;11.95;;;13.30;99.90;;;;;;5081831;28;38439;-80
2023/11/19 02:16:29;;;;;;;77.97;11.10;;;13.30;99.90;;;;;;5081613;28;48564;-78
2023/11/19 02:18:55;;;;;;;64.80;9.50;;;13.20;99.90;;;;;;5077726;28;38963;-80
2023/11/19 02:21:22;;;;;;;66.85;11.25;;;13.20;99.90;;;;;;5081644;28;37333;-79
2023/11/19 02:23:48;;;;;;;62.72;9.77;;;13.20;99.90;;;;;;5083284;28;36856;-78
2023/11/19 02:26:34;;;;;;;81.05;11.95;;;13.20;99.90;;;;;;5081414;28;37551;-78
2023/11/19 02:29:00;;;;;;;85.28;11.80;;;13.10;99.90;;;;;;5076942;28;37360;-79
2023/11/19 02:31:27;;;;;;;68.70;11.00;;;13.10;99.90;;;;;;5081163;28;36037;-79
2023/11/19 02:33:53;;;;;;;83.55;11.23;;;13.10;99.90;;;;;;5081554;28;37399;-79
2023/11/19 02:36:19;;;;;;;78.63;12.15;;;13.00;99.90;;;;;;5078198;28;37557;-78
2023/11/19 02:38:46;;;;;;;77.35;11.48;;;13.00;99.90;;;;;;5079550;28;37392;-78
2023/11/19 02:41:14;;;;;;;82.93;11.88;;;13.00;99.90;;;;;;5080785;28;37424;-79
2023/11/19 02:43:40;;;;;;;83.50;12.60;;;13.00;99.90;;;;;;5082116;28;37005;-78
2023/11/19 02:46:06;;;;;;;92.38;12.88;;;13.00;99.90;;;;;;5082223;28;37892;-79
2023/11/19 02:48:35;;;;;;;76.03;12.27;;;13.00;99.90;;;;;;5083849;28;38653;-79
2023/11/19 02:51:03;;;;;;;81.28;11.77;;;13.00;99.90;;;;;;5081430;28;39312;-78
2023/11/19 02:53:30;;;;;;;72.03;11.32;;;13.00;99.90;;;;;;5078874;28;47738;-79
2023/11/19 02:56:05;;;;;;;80.07;12.13;;;12.90;99.90;;;;;;5078660;28;40644;-79
2023/11/19 02:58:32;;;;;;;95.63;15.80;;;12.90;99.90;;;;;;5075767;28;48039;-79
2023/11/19 03:00:59;;;;;;;87.05;13.10;;;12.90;99.90;;;;;;5076550;28;37081;-77
2023/11/19 03:03:30;;;;;;;79.68;11.65;;;12.90;99.90;;;;;;5073071;28;37369;-80
2023/11/19 03:05:57;;;;;;;90.07;12.77;;;13.00;99.90;;;;;;5079865;28;39137;-79
2023/11/19 03:08:23;;;;;;;88.82;11.32;;;12.90;99.90;;;;;;5072036;28;37194;-80
2023/11/19 03:10:49;;;;;;;78.82;12.02;;;12.90;99.90;;;;;;5076706;28;36830;-80
2023/11/19 03:13:18;;;;;;;79.50;11.10;;;12.80;99.90;;;;;;5075019;28;35616;-81
2023/11/19 03:15:44;;;;;;;89.07;11.88;;;12.80;99.90;;;;;;5075347;28;37831;-79
2023/11/19 03:18:11;;;;;;;70.47;10.52;;;12.80;99.90;;;;;;5075598;28;38767;-79
2023/11/19 03:20:37;;;;;;;67.80;11.52;;;12.80;99.90;;;;;;5074126;28;37676;-80
2023/11/19 03:23:03;;;;;;;82.25;10.98;;;12.70;99.90;;;;;;5076761;28;37447;-80
2023/11/19 03:25:33;;;;;;;65.78;10.55;;;12.60;99.90;;;;;;5075420;28;39511;-80
2023/11/19 03:28:03;;;;;;;69.18;10.70;;;12.70;99.90;;;;;;5074463;28;38491;-79
2023/11/19 03:30:30;;;;;;;66.03;9.82;;;12.70;99.90;;;;;;5073966;28;47168;-80
2023/11/19 03:32:57;;;;;;;65.60;9.43;;;12.70;99.90;;;;;;5078132;28;37974;-80
2023/11/19 03:35:24;;;;;;;73.60;11.45;;;12.70;99.90;;;;;;5074560;28;37857;-80
2023/11/19 03:37:51;;;;;;;68.10;11.07;;;12.70;99.90;;;;;;5076041;28;37806;-80
2023/11/19 03:40:18;;;;;;;96.25;11.10;;;12.70;99.90;;;;;;5073317;28;39087;-81
2023/11/19 03:42:46;;;;;;;78.53;10.85;;;12.70;99.90;;;;;;5073615;28;38145;-81
2023/11/19 03:45:12;;;;;;;74.15;11.80;;;12.70;99.90;;;;;;5074034;28;37656;-80
2023/11/19 03:47:38;;;;;;;73.50;11.35;;;12.70;99.90;;;;;;5077254;28;39421;-81
2023/11/19 03:50:06;;;;;;;87.03;12.10;;;12.70;99.90;;;;;;5073896;28;36603;-78
2023/11/19 03:52:32;;;;;;;69.35;10.02;;;12.70;99.90;;;;;;5075767;28;47213;-79
2023/11/19 03:54:58;;;;;;;63.30;9.07;;;12.70;99.90;;;;;;5077856;28;39563;-78
2023/11/19 03:57:24;;;;;;;73.82;11.00;;;12.70;99.90;;;;;;5075320;28;37556;-80
2023/11/19 03:59:51;;;;;;;72.05;12.30;;;12.60;99.90;;;;;;5073565;28;36946;-80
2023/11/19 04:02:17;;;;;;;76.70;11.40;;;12.60;99.90;;;;;;5077054;28;36928;-78
2023/11/19 04:04:43;;;;;;;74.65;11.52;;;12.60;99.90;;;;;;5075492;28;37831;-82
2023/11/19 04:07:10;;;;;;;71.05;9.70;;;12.60;99.90;;;;;;5078052;28;37203;-78
2023/11/19 04:09:37;;;;;;;73.07;11.52;;;12.60;99.90;;;;;;5076629;28;36978;-78
2023/11/19 04:12:03;;;;;;;77.38;11.43;;;12.60;99.90;;;;;;5074158;28;36999;-79
2023/11/19 04:14:30;;;;;;;75.38;10.52;;;12.60;99.90;;;;;;5076007;28;39617;-79
2023/11/19 04:16:56;;;;;;;73.07;11.15;;;12.50;99.90;;;;;;5074877;28;37803;-80
2023/11/19 04:19:22;;;;;;;66.30;10.32;;;12.50;99.90;;;;;;5076166;28;38589;-79
2023/11/19 04:21:48;;;;;;;58.38;9.60;;;12.50;99.90;;;;;;5075854;28;37389;-79
2023/11/19 04:24:15;;;;;;;66.40;11.27;;;12.50;99.90;;;;;;5071816;28;36783;-80
2023/11/19 04:26:45;;;;;;;87.97;11.15;;;12.50;99.90;;;;;;5073261;28;38139;-79
2023/11/19 04:29:16;;;;;;;65.38;10.05;;;12.50;99.90;;;;;;5073226;28;38096;-80
2023/11/19 04:31:44;;;;;;;69.57;10.68;;;12.50;99.90;;;;;;5078641;28;36554;-80
2023/11/19 04:34:11;;;;;;;82.60;11.90;;;12.50;99.90;;;;;;5071952;27;39532;-81
2023/11/19 04:36:37;;;;;;;74.32;11.30;;;12.50;99.90;;;;;;5070570;28;38748;-80
2023/11/19 04:39:12;;;;;;;69.47;12.02;;;12.50;99.90;;;;;;5071518;28;37152;-79
2023/11/19 04:41:49;;;;;;;78.00;10.77;;;12.50;99.90;;;;;;5075525;28;36267;-80
2023/11/19 04:44:16;;;;;;;76.43;11.07;;;12.50;99.90;;;;;;5072738;28;40342;-81
2023/11/19 04:46:44;;;;;;;75.28;12.55;;;12.50;99.90;;;;;;5074538;28;38064;-80
2023/11/19 04:49:10;;;;;;;65.88;10.50;;;12.60;99.90;;;;;;5071302;28;37652;-79
2023/11/19 04:51:41;;;;;;;79.40;12.23;;;12.60;99.90;;;;;;5077994;28;37128;-80
2023/11/19 04:54:08;;;;;;;96.72;13.73;;;12.60;99.90;;;;;;5075245;28;37045;-80
2023/11/19 04:56:39;;;;;;;77.05;11.90;;;12.50;99.90;;;;;;5074089;28;36939;-79
2023/11/19 04:59:06;;;;;;;63.60;9.73;;;12.50;99.90;;;;;;5073837;28;36740;-80
2023/11/19 05:01:33;;;;;;;76.72;10.90;;;12.50;99.90;;;;;;5072449;28;35828;-82
2023/11/19 05:03:59;;;;;;;78.85;10.50;;;12.50;99.90;;;;;;5074923;28;38255;-79
2023/11/19 05:06:29;;;;;;;63.47;11.00;;;12.50;99.90;;;;;;5071516;27;37108;-79
2023/11/19 05:08:56;;;;;;;65.82;10.90;;;12.50;99.90;;;;;;5069733;28;36567;-80
2023/11/19 05:11:22;;;;;;;66.90;10.95;;;12.50;99.90;;;;;;5073805;27;38944;-78
2023/11/19 05:13:48;;;;;;;75.15;11.93;;;12.50;99.90;;;;;;5076024;28;37416;-79
2023/11/19 05:16:15;;;;;;;74.28;11.02;;;12.50;99.90;;;;;;5071260;28;40888;-79
2023/11/19 05:18:41;;;;;;;81.25;12.02;;;12.50;99.90;;;;;;5071857;28;37910;-79
2023/11/19 05:21:07;;;;;;;73.40;10.43;;;12.50;99.90;;;;;;5071093;28;36202;-79
2023/11/19 05:23:34;;;;;;;63.90;10.18;;;12.40;99.90;;;;;;5071949;28;39223;-80
2023/11/19 05:26:03;;;;;;;70.28;10.80;;;12.40;99.90;;;;;;5073850;28;38323;-79
2023/11/19 05:28:29;;;;;;;72.90;10.13;;;12.40;99.90;;;;;;5067789;28;47297;-80
2023/11/19 05:30:55;;;;;;;71.35;9.50;;;12.40;99.90;;;;;;5071794;28;36383;-80
2023/11/19 05:33:22;;;;;;;64.35;10.88;;;12.40;99.90;;;;;;5069846;28;38727;-80
2023/11/19 05:35:48;;;;;;;66.38;11.10;;;12.40;99.90;;;;;;5071117;28;38217;-81
2023/11/19 05:38:14;;;;;;;64.95;12.02;;;12.40;99.90;;;;;;5072345;27;37632;-80
2023/11/19 05:40:41;;;;;;;78.15;10.45;;;12.40;99.90;;;;;;5073396;28;36928;-80
2023/11/19 05:43:07;;;;;;;68.07;11.10;;;12.40;99.90;;;;;;5071956;28;38706;-80
2023/11/19 05:45:33;;;;;;;79.75;11.25;;;12.40;99.90;;;;;;5072103;28;37128;-80
2023/11/19 05:47:59;;;;;;;78.53;10.75;;;12.30;99.90;;;;;;5073885;28;38061;-81
2023/11/19 05:50:27;;;;;;;75.05;10.25;;;12.30;99.90;;;;;;5069303;28;37770;-80
2023/11/19 05:52:53;;;;;;;71.35;9.75;;;12.30;99.90;;;;;;5071993;28;38494;-80
2023/11/19 05:55:19;;;;;;;68.03;11.15;;;12.30;99.90;;;;;;5074874;28;37864;-81
2023/11/19 05:57:46;;;;;;;74.25;11.43;;;12.20;99.90;;;;;;5069709;28;37685;-80
2023/11/19 06:00:13;;;;;;;64.17;10.90;;;12.20;99.90;;;;;;5075599;28;36984;-80
2023/11/19 06:02:39;;;;;;;72.53;9.77;;;12.20;99.90;;;;;;5072484;28;40229;-81
2023/11/19 06:05:06;;;;;;;69.95;9.70;;;12.20;99.90;;;;;;5072588;28;38718;-81
2023/11/19 06:07:33;;;;;;;71.88;10.38;;;12.30;99.90;;;;;;5069692;28;36893;-80
2023/11/19 06:09:59;;;;;;;71.85;11.60;;;12.30;99.90;;;;;;5073285;28;36063;-81
2023/11/19 06:12:27;;;;;;;64.57;10.10;;;12.30;99.90;;;;;;5070625;28;37644;-81
2023/11/19 06:14:53;;;;;;;71.00;10.40;;;12.30;99.90;;;;;;5076168;28;38273;-80
2023/11/19 06:17:19;;;;;;;86.88;13.10;;;12.30;99.90;;;;;;5072218;28;37417;-81
2023/11/19 06:19:46;;;;;;;68.57;10.43;;;12.30;99.90;;;;;;5071025;28;36813;-82
2023/11/19 06:22:12;;;;;;;72.93;10.60;;;12.30;99.90;;;;;;5071578;28;37813;-80
2023/11/19 06:24:38;;;;;;;77.28;11.60;;;12.40;99.90;;;;;;5072101;28;38423;-81
2023/11/19 06:27:04;;;;;;;63.05;10.45;;;12.40;99.90;;;;;;5071271;28;37679;-80
2023/11/19 06:29:30;;;;;;;81.10;11.13;;;12.40;99.90;;;;;;5068581;28;36686;-80
2023/11/19 06:31:57;;;;;;;54.08;10.07;;;12.40;99.90;;;;;;5071498;28;38881;-80
2023/11/19 06:34:23;;;;;;;75.75;11.18;;;12.40;99.90;;;;;;5071531;28;39089;-80
2023/11/19 06:36:49;;;;;;;68.22;10.50;;;12.50;99.90;;;;;;5075956;28;36799;-79
2023/11/19 06:39:15;;;;;;;71.68;11.10;;;12.50;99.90;;;;;;5074618;28;37615;-81
2023/11/19 06:41:46;;;;;;;72.30;10.35;;;12.50;99.90;;;;;;5078898;28;38934;-79
2023/11/19 06:44:12;;;;;;;59.80;9.25;;;12.50;99.90;;;;;;5075513;28;37347;-79
2023/11/19 06:46:39;;;;;;;60.63;9.23;;;12.50;99.90;;;;;;5075553;28;37920;-79
2023/11/19 06:49:07;;;;;;;76.97;11.20;;;12.50;99.90;;;;;;5075626;28;37408;-79
2023/11/19 06:51:34;;;;;;;81.20;10.75;;;12.50;99.90;;;;;;5075657;28;38583;-80
2023/11/19 06:54:00;;;;;;;83.38;11.80;;;12.50;99.90;;;;;;5074826;28;38955;-80
2023/11/19 06:56:26;;;;;;;67.40;8.82;;;12.50;99.90;;;;;;5075677;28;47130;-80
2023/11/19 06:58:53;;;;;;;70.10;10.27;;;12.50;99.90;;;;;;5075280;27;37174;-80
2023/11/19 07:01:20;;;;;;;73.28;11.10;;;12.50;99.90;;;;;;5072091;28;37827;-79
2023/11/19 07:03:46;;;;;;;71.13;10.70;;;12.50;99.90;;;;;;5075523;27;39328;-80
2023/11/19 07:06:15;;;;;;;69.88;10.60;;;12.50;99.90;;;;;;5072700;28;36759;-80
2023/11/19 07:08:44;;;;;;;68.22;10.35;;;12.50;99.90;;;;;;5072761;28;36216;-78
2023/11/19 07:11:11;;;;;;;66.63;10.80;;;12.60;99.90;;;;;;5076489;27;38600;-79
2023/11/19 07:13:37;;;;;;;63.42;9.30;;;12.50;99.90;;;;;;5073797;28;38159;-81
2023/11/19 07:16:04;;;;;;;67.13;9.52;;;12.50;99.90;;;;;;5070253;27;38797;-80
2023/11/19 07:18:31;;;;;;;65.18;10.20;;;12.40;99.90;;;;;;5072814;28;35818;-80
2023/11/19 07:20:59;;;;;;;81.63;11.13;;;12.40;99.90;;;;;;5074259;28;38554;-79
2023/11/19 07:23:25;;;;;;;71.93;10.00;;;12.40;99.90;;;;;;5077986;28;36037;-80
2023/11/19 07:25:53;;;;;;;70.63;10.63;;;12.40;99.90;;;;;;5069690;28;41379;-79
2023/11/19 07:28:19;;;;;;;73.53;9.65;;;12.40;99.90;;;;;;5073093;27;37235;-79
2023/11/19 07:30:46;;;;;;;75.93;11.73;;;12.40;99.90;;;;;;5071887;28;38813;-79
2023/11/19 07:33:13;;;;;;;70.22;10.40;;;12.40;99.90;;;;;;5078516;27;38172;-80
2023/11/19 07:35:42;;;;;;;70.82;10.25;;;12.40;99.90;;;;;;5072773;28;37411;-79
2023/11/19 07:38:08;;;;;;;71.45;10.50;;;12.40;99.90;;;;;;5072555;27;36167;-80
2023/11/19 07:40:34;;;;;;;64.30;9.95;;;12.50;99.90;;;;;;5069781;28;37701;-79
2023/11/19 07:43:00;;;;;;;63.60;9.57;;;12.50;99.90;;;;;;5074364;28;37141;-80
2023/11/19 07:45:27;;;;;;;64.57;10.45;;;12.50;99.90;;;;;;5071313;27;36366;-80
2023/11/19 07:47:54;;;;;;;62.33;9.77;;;12.50;99.90;;;;;;5078652;28;36154;-80
2023/11/19 07:50:20;;;;;;;56.92;9.20;;;12.50;99.90;;;;;;5075230;28;37726;-79
2023/11/19 07:52:46;;;;;;;72.38;9.85;;;12.60;99.90;;;;;;5077958;28;37271;-79
2023/11/19 07:55:13;;;;;;;64.85;9.27;;;12.60;99.90;;;;;;5078504;28;36908;-80
2023/11/19 07:57:39;;;;;;;74.57;11.60;;;12.70;99.90;;;;;;5076242;28;38282;-82
2023/11/19 08:00:06;;;;;;;70.57;11.35;;;12.80;99.90;;;;;;5073531;28;37936;-80
2023/11/19 08:02:32;;;;;;;60.60;10.32;;;12.80;99.90;;;;;;5072664;28;37635;-81
2023/11/19 08:04:59;;;;;;;66.20;10.45;;;12.80;99.90;;;;;;5078694;28;37807;-80
2023/11/19 08:07:25;;;;;;;66.55;9.73;;;12.80;99.90;;;;;;5075616;28;38307;-80
2023/11/19 08:09:51;;;;;;;54.22;8.55;;;12.80;99.90;;;;;;5072360;28;39161;-79
2023/11/19 08:12:17;;;;;;;70.50;11.32;;;12.80;99.90;;;;;;5072369;28;37227;-79
2023/11/19 08:14:44;;;;;;;67.90;9.93;;;12.80;99.90;;;;;;5074979;28;38785;-80
2023/11/19 08:17:10;;;;;;;64.22;9.55;;;12.80;99.90;;;;;;5071688;28;36698;-80
2023/11/19 08:19:36;;;;;;;60.20;9.63;;;12.80;99.90;;;;;;5072674;28;37893;-81
2023/11/19 08:22:02;;;;;;;59.88;10.10;;;12.90;99.90;;;;;;5075864;28;38147;-79
2023/11/19 08:24:28;;;;;;;62.38;9.68;;;12.90;99.90;;;;;;5048122;28;37421;-79
2023/11/19 08:26:54;;;;;;;55.70;9.13;;;12.90;99.90;;;;;;5058429;28;36726;-79
2023/11/19 08:29:21;;;;;;;60.55;9.57;;;12.90;99.90;;;;;;5066430;28;39022;-79
2023/11/19 08:31:47;;;;;;;50.15;8.77;;;12.90;99.90;;;;;;5064087;28;37422;-78
2023/11/19 08:34:13;;;;;;;57.08;9.40;;;12.90;99.90;;;;;;5067001;28;36467;-79
2023/11/19 08:36:40;;;;;;;53.00;10.30;;;12.90;99.90;;;;;;5067478;28;38565;-80
2023/11/19 08:39:08;;;;;;;62.55;10.25;;;12.90;99.90;;;;;;5066971;27;38895;-80
2023/11/19 08:41:34;;;;;;;55.13;9.10;;;13.00;99.90;;;;;;5064951;28;38326;-80
2023/11/19 08:44:00;;;;;;;53.58;8.80;;;13.20;99.90;;;;;;5066863;28;38449;-80
2023/11/19 08:46:26;;;;;;;52.17;9.50;;;13.30;99.90;;;;;;5066292;28;46829;-79
2023/11/19 08:48:55;;;;;;;53.88;8.88;;;13.40;99.90;;;;;;5067993;27;39579;-79
2023/11/19 08:51:24;;;;;;;49.42;7.55;;;13.40;99.90;;;;;;5064085;28;37406;-82
2023/11/19 08:53:58;;;;;;;58.28;9.80;;;13.40;99.90;;;;;;5074448;28;38681;-81
2023/11/19 08:56:24;;;;;;;49.60;8.48;;;13.40;99.90;;;;;;5064744;28;36602;-80
2023/11/19 08:58:50;;;;;;;46.63;8.52;;;13.40;99.90;;;;;;5066107;28;38123;-77
2023/11/19 09:01:16;;;;;;;44.45;8.18;;;13.50;99.90;;;;;;5066012;27;38645;-78
2023/11/19 09:03:42;;;;;;;44.90;7.85;;;13.60;99.90;;;;;;5046114;28;38311;-77
2023/11/19 09:06:09;;;;;;;46.78;8.00;;;13.60;99.90;;;;;;5045227;28;36438;-77
2023/11/19 09:08:35;;;;;;;44.95;8.65;;;13.60;99.90;;;;;;5069979;28;38222;-78
2023/11/19 09:11:06;;;;;;;40.40;7.68;;;13.50;99.90;;;;;;5057777;28;38192;-77
2023/11/19 09:13:32;;;;;;;47.75;7.72;;;13.50;99.90;;;;;;5052074;28;45643;-77
2023/11/19 09:16:03;;;;;;;56.78;8.55;;;13.50;99.90;;;;;;5068919;28;36283;-78
2023/11/19 09:18:29;;;;;;;48.33;8.55;;;13.40;99.90;;;;;;5064644;27;48672;-79
2023/11/19 09:20:56;;;;;;;57.85;8.55;;;13.30;99.90;;;;;;5046151;28;39010;-78
2023/11/19 09:23:22;;;;;;;49.05;9.52;;;13.30;99.90;;;;;;5042910;28;37302;-78
2023/11/19 09:25:48;;;;;;;56.08;7.68;;;13.40;99.90;;;;;;5038429;28;36813;-77
2023/11/19 09:28:14;;;;;;;61.90;9.65;;;13.40;99.90;;;;;;5046745;28;39668;-78
2023/11/19 09:30:40;;;;;;;49.33;8.68;;;13.40;99.90;;;;;;5063755;28;37390;-78
2023/11/19 09:33:06;;;;;;;60.15;9.30;;;13.50;99.90;;;;;;5065738;27;37420;-78
2023/11/19 09:35:33;;;;;;;46.05;9.13;;;13.60;99.90;;;;;;5067816;28;36699;-78
2023/11/19 09:37:59;;;;;;;59.55;9.20;;;13.80;99.90;;;;;;5068260;28;38490;-78
2023/11/19 09:40:26;;;;;;;50.75;8.10;;;14.00;99.90;;;;;;5063498;28;38174;-78
2023/11/19 09:42:54;;;;;;;59.38;8.88;;;14.00;99.90;;;;;;5082896;28;38592;-78
2023/11/19 09:46:05;;;;;;;54.97;9.02;;;14.10;99.90;;;;;;5057671;27;37262;-78
2023/11/19 09:48:37;;;;;;;44.47;8.10;;;14.10;99.90;;;;;;5010981;28;47944;-78
2023/11/19 09:51:10;;;;;;;50.42;8.88;;;14.20;99.90;;;;;;5050153;28;39026;-78
2023/11/19 09:53:40;;;;;;;52.50;8.88;;;14.20;99.90;;;;;;5066452;28;36485;-79
2023/11/19 09:56:31;;;;;;;52.53;9.43;;;14.20;99.90;;;;;;5073019;28;39218;-77
2023/11/19 09:59:09;;;;;;;53.35;8.85;;;14.20;99.90;;;;;;5043421;28;39380;-77
2023/11/19 10:01:59;;;;;;;55.35;8.18;;;14.30;99.90;;;;;;5047976;28;48249;-76
2023/11/19 10:07:57;;;;;;;58.55;8.25;;;14.40;99.90;;;;;;5046030;28;48936;-78
2023/11/19 10:10:26;;;;;;;46.85;8.70;;;14.50;99.90;;;;;;5041623;27;39182;-76
2023/11/19 10:13:00;;;;;;;53.75;8.38;;;14.40;99.90;;;;;;5046255;28;41227;-77
2023/11/19 10:15:26;;;;;;;47.08;8.68;;;14.40;99.90;;;;;;5056229;28;47576;-78
2023/11/19 10:17:56;;;;;;;50.63;8.30;;;14.30;99.90;;;;;;5040838;28;35994;-78
2023/11/19 10:20:23;;;;;;;54.75;9.18;;;14.30;99.90;;;;;;5037231;28;37647;-77
2023/11/19 10:22:54;;;;;;;45.65;8.70;;;14.30;99.90;;;;;;5058235;28;37818;-78
2023/11/19 10:25:30;;;;;;;47.80;9.13;;;14.30;99.90;;;;;;5038226;28;36794;-77
2023/11/19 10:27:57;;;;;;;49.70;8.60;;;14.30;99.90;;;;;;5034260;28;37603;-78
2023/11/19 10:30:26;;;;;;;51.75;9.43;;;14.40;99.90;;;;;;5052228;28;37197;-77
2023/11/19 10:33:20;;;;;;;49.42;8.50;;;14.40;99.90;;;;;;5042950;28;39865;-78
2023/11/19 10:35:56;;;;;;;47.53;8.77;;;14.50;99.90;;;;;;5065082;28;47315;-77
2023/11/19 10:38:23;;;;;;;49.13;9.07;;;14.50;99.90;;;;;;5062311;28;36868;-78
2023/11/19 10:40:50;;;;;;;51.85;9.10;;;14.50;99.90;;;;;;5064799;28;37744;-77
2023/11/19 10:43:17;;;;;;;54.40;8.90;;;14.60;99.90;;;;;;5059270;27;37517;-75
2023/11/19 10:45:44;;;;;;;63.53;10.27;;;14.60;99.90;;;;;;5048805;28;36510;-76
2023/11/19 10:48:12;;;;;;;46.25;8.18;;;14.60;99.90;;;;;;5069191;27;36372;-78
2023/11/19 10:50:40;;;;;;;50.53;8.90;;;14.60;99.90;;;;;;5070728;28;38001;-77
2023/11/19 10:53:10;;;;;;;57.10;8.70;;;14.60;99.90;;;;;;5070782;28;37234;-78
2023/11/19 10:55:40;;;;;;;48.38;8.63;;;14.60;99.90;;;;;;5060249;28;37331;-77
2023/11/19 10:58:09;;;;;;;45.50;7.80;;;14.60;99.90;;;;;;5055842;27;37347;-77
2023/11/19 11:01:02;;;;;;;39.88;7.20;;;14.60;99.90;;;;;;5069429;28;40327;-78
2023/11/19 11:03:39;;;;;;;40.67;7.43;;;14.60;99.90;;;;;;5061138;28;47182;-78
2023/11/19 11:06:06;;;;;;;42.97;7.53;;;14.50;99.90;;;;;;5068101;28;36632;-78
2023/11/19 11:08:39;;;;;;;42.30;7.50;;;14.50;99.90;;;;;;5071301;28;36771;-79
2023/11/19 11:11:07;;;;;;;36.67;7.63;;;14.30;99.90;;;;;;5069932;28;39659;-78
2023/11/19 11:13:34;;;;;;;41.33;7.05;;;14.30;99.90;;;;;;5069807;28;39642;-76
2023/11/19 11:16:00;;;;;;;42.53;6.85;;;14.20;99.90;;;;;;5075112;27;39054;-76
2023/11/19 11:18:27;;;;;;;47.97;6.53;;;14.30;99.90;;;;;;5065288;28;36940;-78
2023/11/19 11:21:03;;;;;;;38.20;6.75;;;14.40;99.90;;;;;;5068150;27;40036;-78
2023/11/19 11:23:54;;;;;;;44.72;7.90;;;14.50;99.90;;;;;;5061886;28;46906;-78
2023/11/19 11:26:23;;;;;;;45.03;7.82;;;14.50;99.90;;;;;;5068049;28;38577;-78
2023/11/19 11:29:05;;;;;;;41.78;8.82;;;14.60;99.90;;;;;;5067789;28;36318;-79
2023/11/19 11:31:56;;;;;;;45.22;7.25;;;14.60;99.90;;;;;;5068830;28;47262;-78
2023/11/19 11:34:31;;;;;;;43.97;6.90;;;14.60;99.90;;;;;;5066777;27;39953;-78
2023/11/19 11:37:38;;;;;;;35.90;7.55;;;14.80;99.90;;;;;;5066880;27;36909;-77
2023/11/19 11:40:10;;;;;;;36.33;7.43;;;14.90;99.90;;;;;;5042257;28;47116;-77
2023/11/19 11:42:36;;;;;;;48.50;8.48;;;15.10;99.90;;;;;;5064539;28;48393;-78
2023/11/19 11:45:10;;;;;;;42.38;8.23;;;15.00;99.90;;;;;;5065874;28;37956;-78
2023/11/19 11:47:45;;;;;;;46.67;9.52;;;15.00;99.90;;;;;;5068704;28;47252;-77
2023/11/19 11:50:11;;;;;;;48.05;8.35;;;15.00;99.90;;;;;;5068238;28;40059;-76
2023/11/19 11:52:59;;;;;;;49.08;7.88;;;15.00;99.90;;;;;;5071988;28;38563;-79
2023/11/19 11:55:25;;;;;;;46.03;9.15;;;15.00;99.90;;;;;;5064735;27;37923;-78
2023/11/19 11:57:51;;;;;;;52.85;9.07;;;15.00;99.90;;;;;;5069078;27;39457;-78
2023/11/19 12:00:31;;;;;;;48.85;7.70;;;14.90;99.90;;;;;;5070189;28;35872;-81
2023/11/19 12:03:00;;;;;;;53.10;8.60;;;15.00;99.90;;;;;;5068354;28;49070;-77
2023/11/19 12:05:28;;;;;;;42.95;8.30;;;15.00;99.90;;;;;;5067004;28;38086;-77
2023/11/19 12:08:01;;;;;;;46.03;7.75;;;15.00;99.90;;;;;;5063421;28;38005;-75
2023/11/19 12:10:32;;;;;;;43.50;7.32;;;15.10;99.90;;;;;;5063957;28;49200;-75
2023/11/19 12:13:01;;;;;;;47.17;8.75;;;15.10;99.90;;;;;;5065932;27;38286;-74
2023/11/19 12:15:28;;;;;;;44.05;7.88;;;15.00;99.90;;;;;;5065300;28;48481;-76
2023/11/19 12:17:55;;;;;;;41.58;7.93;;;15.00;99.90;;;;;;5067709;28;36430;-76
2023/11/19 12:20:26;;;;;;;52.78;9.05;;;14.90;99.90;;;;;;5069409;27;37218;-77
2023/11/19 12:22:53;;;;;;;48.47;8.90;;;14.90;99.90;;;;;;5062076;27;39516;-77
2023/11/19 12:25:20;;;;;;;48.92;8.07;;;15.00;99.90;;;;;;5063187;28;37095;-76
2023/11/19 12:27:48;;;;;;;43.63;8.45;;;15.20;99.90;;;;;;5063626;28;36356;-74
2023/11/19 12:30:32;;;;;;;41.65;7.47;;;15.30;99.90;;;;;;5067131;27;36430;-74
2023/11/19 12:32:59;;;;;;;40.65;7.68;;;15.40;99.90;;;;;;5064372;28;37515;-75
2023/11/19 12:35:25;;;;;;;44.63;8.38;;;15.40;99.90;;;;;;5066199;28;38603;-75
2023/11/19 12:37:55;;;;;;;50.33;9.10;;;15.40;99.90;;;;;;5064869;28;38569;-75
2023/11/19 12:40:24;;;;;;;46.00;8.80;;;15.40;99.90;;;;;;5067321;28;37307;-75
2023/11/19 12:42:53;;;;;;;39.38;7.35;;;15.30;99.90;;;;;;5070176;28;40174;-77
2023/11/19 12:45:20;;;;;;;44.22;6.82;;;15.10;99.90;;;;;;5064284;27;39106;-75